Time;durP1;ratioP1;P1;durP2;ratioP2;P2;SDS_P1;SDS_P2;PMS_P1;PMS_P2;Temp;Humidity;BMP_temperature;BMP_pressure;BME280_temperature;BME280_humidity;BME280_pressure;Samples;Min_cycle;Max_cycle;Signal;HPM_P1;HPM_P2
2022/08/01 00:01:18;;;;;;;6.53;3.98;;;;;;;22.42;75.00;100411.79;1675317;85;21024;-94
2022/08/01 00:03:45;;;;;;;4.83;4.20;;;;;;;22.33;71.04;100409.28;1675603;85;21065;-93
2022/08/01 00:06:12;;;;;;;7.45;4.80;;;;;;;22.31;71.22;100407.84;1675389;85;21017;-93
2022/08/01 00:08:39;;;;;;;4.95;3.80;;;;;;;22.30;70.97;100406.20;1675327;85;21201;-94
2022/08/01 00:11:06;;;;;;;4.60;3.58;;;;;;;22.29;68.76;100409.38;1675487;85;20993;-94
2022/08/01 00:13:35;;;;;;;4.72;4.25;;;;;;;22.30;68.26;100408.37;1675090;85;21432;-94
2022/08/01 00:16:02;;;;;;;4.28;3.62;;;;;;;22.31;68.40;100413.95;1675500;85;21115;-94
2022/08/01 00:18:29;;;;;;;6.55;3.83;;;;;;;22.32;68.20;100427.53;1675362;85;21095;-95
2022/08/01 00:20:57;;;;;;;4.62;4.22;;;;;;;22.32;68.77;100434.16;1675566;85;21131;-93
2022/08/01 00:23:24;;;;;;;6.08;3.70;;;;;;;22.33;69.85;100442.43;1675302;85;21096;-95
2022/08/01 00:25:51;;;;;;;5.50;4.17;;;;;;;22.34;71.68;100446.72;1675247;85;21048;-92
2022/08/01 00:28:18;;;;;;;6.55;4.08;;;;;;;22.34;74.13;100443.27;1672662;85;21037;-93
2022/08/01 00:30:45;;;;;;;6.40;4.03;;;;;;;22.32;74.32;100445.29;1675569;85;21063;-92
2022/08/01 00:33:13;;;;;;;10.75;3.45;;;;;;;22.29;75.84;100438.55;1675245;85;21150;-91
2022/08/01 00:35:40;;;;;;;7.08;4.42;;;;;;;22.23;79.50;100434.05;1675101;85;21055;-91
2022/08/01 00:38:07;;;;;;;5.67;3.70;;;;;;;22.15;80.40;100424.92;1675201;85;21610;-91
2022/08/01 00:40:35;;;;;;;4.78;3.75;;;;;;;22.06;78.75;100425.09;1666626;85;21404;-92
2022/08/01 00:43:02;;;;;;;6.45;4.50;;;;;;;22.01;80.18;100419.53;1664378;85;21028;-92
2022/08/01 00:45:29;;;;;;;8.25;4.90;;;;;;;21.97;78.85;100402.89;1640672;85;21137;-93
2022/08/01 00:47:57;;;;;;;10.68;5.72;;;;;;;21.95;77.79;100408.39;1630586;88;21102;-92
2022/08/01 00:50:24;;;;;;;8.88;5.70;;;;;;;21.97;76.29;100403.72;1663246;86;21080;-94
2022/08/01 00:52:51;;;;;;;10.38;6.97;;;;;;;21.99;76.10;100396.37;1704597;84;21020;-93
2022/08/01 00:55:20;;;;;;;9.93;6.85;;;;;;;22.01;75.77;100398.84;1704750;84;21040;-92
2022/08/01 00:57:49;;;;;;;12.30;6.80;;;;;;;22.01;76.84;100394.34;1704491;84;21204;-92
2022/08/01 02:57:15;;;;;;;12.18;9.43;;;;;;;18.74;100.00;100441.64;1698315;83;20947;-91
2022/08/01 02:59:44;;;;;;;14.58;9.23;;;;;;;18.57;100.00;100440.91;1711031;83;21139;-92
2022/08/01 03:02:13;;;;;;;12.35;9.60;;;;;;;18.43;100.00;100456.44;1711362;82;20951;-92
2022/08/01 03:04:42;;;;;;;13.53;8.98;;;;;;;18.35;100.00;100452.52;1704761;83;22214;-92
2022/08/01 03:07:11;;;;;;;10.55;7.80;;;;;;;18.29;100.00;100455.84;1689374;83;21018;-92
2022/08/01 03:09:41;;;;;;;10.55;8.08;;;;;;;18.27;100.00;100453.38;1686818;85;20980;-91
2022/08/01 03:12:19;;;;;;;12.65;8.30;;;;;;;18.26;100.00;100449.09;1700191;84;21160;-91
2022/08/01 03:14:50;;;;;;;17.37;8.60;;;;;;;18.30;100.00;100452.22;1690290;83;21015;-92
2022/08/01 03:17:20;;;;;;;15.78;9.18;;;;;;;18.37;100.00;100460.27;1686886;83;21077;-90
2022/08/01 03:19:50;;;;;;;14.07;8.43;;;;;;;18.44;100.00;100465.19;1686894;84;21121;-92
2022/08/01 03:22:18;;;;;;;12.90;8.30;;;;;;;18.50;100.00;100464.49;1686828;84;21105;-90
2022/08/01 03:24:50;;;;;;;9.40;7.10;;;;;;;18.54;100.00;100473.72;1686867;85;21144;-92
2022/08/01 03:27:22;;;;;;;12.10;7.33;;;;;;;18.59;100.00;100478.45;1683913;84;21049;-91
2022/08/01 03:29:51;;;;;;;11.73;7.53;;;;;;;18.64;100.00;100474.83;1686748;84;21018;-91
2022/08/01 03:32:20;;;;;;;11.18;6.70;;;;;;;18.69;100.00;100476.95;1686669;84;21109;-91
2022/08/01 03:34:47;;;;;;;11.80;7.42;;;;;;;18.72;100.00;100480.06;1686814;83;21527;-94
2022/08/01 03:37:29;;;;;;;21.87;7.28;;;;;;;18.77;100.00;100482.19;1686721;84;21158;-93
2022/08/01 03:39:58;;;;;;;;;;;;;;;18.81;100.00;100482.15;1688912;84;21001;-95
2022/08/01 03:42:33;;;;;;;10.00;6.90;;;;;;;18.82;100.00;100486.44;1654479;86;20188;-92
2022/08/01 03:45:10;;;;;;;10.35;6.55;;;;;;;18.84;100.00;100483.61;1683663;84;21124;-91
2022/08/01 03:47:41;;;;;;;11.33;6.58;;;;;;;18.84;100.00;100482.30;1685502;84;21074;-93
2022/08/01 03:50:11;;;;;;;9.48;7.28;;;;;;;18.84;100.00;100480.97;1654733;86;22027;-93
2022/08/01 03:52:42;;;;;;;7.05;5.83;;;;;;;18.81;100.00;100480.83;1699858;84;21578;-92
2022/08/01 03:55:11;;;;;;;9.73;6.28;;;;;;;18.77;100.00;100482.19;1690228;84;21128;-92
2022/08/01 03:57:40;;;;;;;8.58;6.83;;;;;;;18.74;100.00;100486.47;1697282;83;21119;-92
2022/08/01 04:00:08;;;;;;;12.73;6.35;;;;;;;18.70;100.00;100483.36;1695664;84;21597;-91
2022/08/01 04:02:42;;;;;;;10.15;6.62;;;;;;;18.68;100.00;100472.66;1698291;84;21217;-91
2022/08/01 04:05:10;;;;;;;8.83;6.30;;;;;;;18.69;100.00;100475.62;1662110;84;21021;-91
2022/08/01 04:07:39;;;;;;;12.00;6.90;;;;;;;18.69;100.00;100473.80;1639348;86;21027;-92
2022/08/01 04:10:07;;;;;;;9.00;6.60;;;;;;;18.71;100.00;100470.50;1679878;84;21021;-92
2022/08/01 04:12:35;;;;;;;8.85;7.15;;;;;;;18.75;100.00;100469.14;1650840;85;21131;-91
2022/08/01 04:15:03;;;;;;;10.30;6.42;;;;;;;18.80;100.00;100464.67;1698260;83;21279;-93
2022/08/01 04:17:31;;;;;;;9.68;6.70;;;;;;;18.87;100.00;100460.86;1696420;84;21506;-91
2022/08/01 04:19:58;;;;;;;7.97;6.75;;;;;;;18.95;100.00;100457.39;1697615;84;21036;-90
2022/08/01 04:22:26;;;;;;;11.70;7.55;;;;;;;19.05;100.00;100457.97;1698075;84;21565;-92
2022/08/01 04:24:57;;;;;;;13.13;7.78;;;;;;;19.14;100.00;100448.20;1697982;84;21043;-90
2022/08/01 04:27:31;;;;;;;10.78;7.15;;;;;;;19.22;100.00;100438.39;1698617;84;21855;-92
2022/08/01 04:30:00;;;;;;;9.28;6.65;;;;;;;19.32;100.00;100436.02;1699283;82;20988;-93
2022/08/01 04:32:32;;;;;;;10.90;6.28;;;;;;;19.40;100.00;100433.31;1662387;85;21033;-92
2022/08/01 04:35:06;;;;;;;7.05;5.90;;;;;;;19.48;100.00;100437.69;1698081;84;21059;-91
2022/08/01 04:37:36;;;;;;;10.48;6.90;;;;;;;19.54;100.00;100438.31;1702467;84;21066;-92
2022/08/01 04:40:06;;;;;;;11.35;7.00;;;;;;;19.59;100.00;100440.42;1697552;84;21147;-93
2022/08/01 04:42:33;;;;;;;8.30;6.85;;;;;;;19.64;100.00;100439.38;1658187;86;21074;-92
2022/08/01 04:45:01;;;;;;;10.93;6.60;;;;;;;19.67;100.00;100442.95;1703137;83;21047;-92
2022/08/01 04:47:32;;;;;;;12.50;6.97;;;;;;;19.68;100.00;100434.03;1663646;83;21006;-92
2022/08/01 04:50:06;;;;;;;14.95;6.33;;;;;;;19.68;100.00;100430.08;1674258;84;21055;-93
2022/08/01 04:52:37;;;;;;;9.98;6.53;;;;;;;19.68;100.00;100431.39;1692913;84;21201;-92
2022/08/01 04:55:06;;;;;;;15.10;7.22;;;;;;;19.66;100.00;100428.95;1698383;83;21618;-96
2022/08/01 04:57:40;;;;;;;8.03;6.83;;;;;;;19.67;100.00;100441.16;1696207;84;21139;-91
2022/08/01 05:00:08;;;;;;;12.73;8.28;;;;;;;19.67;100.00;100441.16;1694666;84;21017;-93
2022/08/01 05:02:36;;;;;;;15.20;8.20;;;;;;;19.68;100.00;100438.00;1694496;83;21511;-92
2022/08/01 05:05:05;;;;;;;10.43;7.28;;;;;;;19.68;100.00;100443.28;1666937;83;21164;-92
2022/08/01 05:07:35;;;;;;;12.47;6.90;;;;;;;19.67;100.00;100439.83;1644096;87;21027;-94
2022/08/01 05:10:05;;;;;;;9.83;7.03;;;;;;;19.67;100.00;100445.59;1630144;86;22042;-96
2022/08/01 05:12:32;;;;;;;9.03;6.95;;;;;;;19.66;100.00;100442.15;1647681;86;21044;-95
2022/08/01 05:15:01;;;;;;;11.20;7.65;;;;;;;19.65;100.00;100447.62;1653197;86;21075;-96
2022/08/01 05:17:29;;;;;;;10.90;6.87;;;;;;;19.62;100.00;100450.13;1653072;85;21234;-95
2022/08/01 05:19:56;;;;;;;8.08;6.80;;;;;;;19.62;100.00;100447.97;1653072;86;21043;-94
2022/08/01 05:22:25;;;;;;;13.13;6.95;;;;;;;19.62;100.00;100444.84;1673802;84;21054;-95
2022/08/01 05:24:52;;;;;;;9.60;6.87;;;;;;;19.64;100.00;100449.94;1681756;84;21509;-94
2022/08/01 05:27:20;;;;;;;10.15;7.15;;;;;;;19.66;100.00;100450.08;1683097;83;21074;-96
2022/08/01 05:29:47;;;;;;;10.00;7.00;;;;;;;19.69;100.00;100447.56;1682260;84;21107;-94
2022/08/01 05:32:14;;;;;;;10.68;7.55;;;;;;;19.69;100.00;100440.96;1680588;85;21557;-85
2022/08/01 05:34:41;;;;;;;8.95;7.37;;;;;;;19.70;100.00;100446.09;1692029;84;21055;-86
2022/08/01 05:37:08;;;;;;;9.58;6.75;;;;;;;19.70;100.00;100446.57;1678666;85;21006;-87
2022/08/01 05:39:36;;;;;;;13.98;7.25;;;;;;;19.71;100.00;100442.94;1682719;84;21018;-86
2022/08/01 05:42:03;;;;;;;9.98;7.42;;;;;;;19.70;100.00;100450.05;1660390;84;21144;-86
2022/08/01 05:44:30;;;;;;;9.80;7.05;;;;;;;19.69;100.00;100467.37;1663729;85;21052;-87
2022/08/01 05:46:57;;;;;;;13.62;8.38;;;;;;;19.63;100.00;100475.51;1663064;84;21121;-87
2022/08/01 05:49:24;;;;;;;16.15;9.13;;;;;;;19.58;100.00;100488.95;1663287;85;21074;-87
2022/08/01 05:51:52;;;;;;;13.20;9.15;;;;;;;19.54;100.00;100494.58;1667178;85;21546;-87
2022/08/01 05:54:19;;;;;;;11.35;8.33;;;;;;;19.50;100.00;100489.34;1672627;83;21107;-86
2022/08/01 05:56:46;;;;;;;10.68;7.85;;;;;;;19.48;100.00;100496.61;1684148;84;21662;-86
2022/08/01 05:59:13;;;;;;;10.48;7.97;;;;;;;19.44;100.00;100504.55;1661536;84;21025;-86
2022/08/01 06:01:40;;;;;;;11.33;7.87;;;;;;;19.41;100.00;100499.64;1649987;85;21508;-91
2022/08/01 06:04:07;;;;;;;15.38;10.25;;;;;;;19.40;100.00;100484.79;1648016;85;21041;-93
2022/08/01 06:06:35;;;;;;;10.58;8.65;;;;;;;19.42;100.00;100477.52;1649720;85;21114;-94
2022/08/01 06:09:02;;;;;;;11.70;8.20;;;;;;;19.42;100.00;100480.16;1650392;84;21964;-93
2022/08/01 06:11:29;;;;;;;9.70;7.83;;;;;;;19.44;100.00;100474.18;1668063;85;21142;-93
2022/08/01 06:13:57;;;;;;;8.98;7.53;;;;;;;19.47;100.00;100480.95;1656675;85;21543;-92
2022/08/01 06:16:24;;;;;;;9.63;8.23;;;;;;;19.49;100.00;100478.94;1656537;85;21034;-92
2022/08/01 06:18:51;;;;;;;10.25;8.00;;;;;;;19.51;100.00;100473.79;1656581;85;21253;-93
2022/08/01 06:21:18;;;;;;;10.90;8.08;;;;;;;19.51;100.00;100465.88;1657004;86;21074;-94
2022/08/01 06:23:46;;;;;;;10.25;8.18;;;;;;;19.50;100.00;100463.42;1697422;84;21103;-92
2022/08/01 06:26:13;;;;;;;11.10;8.33;;;;;;;19.45;100.00;100463.95;1657611;84;21068;-92
2022/08/01 06:28:40;;;;;;;13.10;7.85;;;;;;;19.40;100.00;100467.63;1649506;85;21025;-94
2022/08/01 06:31:07;;;;;;;9.58;7.70;;;;;;;19.35;100.00;100463.36;1652918;84;21104;-92
2022/08/01 06:33:34;;;;;;;10.68;7.62;;;;;;;19.31;100.00;100459.45;1659816;86;21046;-94
2022/08/01 06:36:02;;;;;;;10.65;7.42;;;;;;;19.27;100.00;100460.81;1661229;84;21097;-96
2022/08/01 06:38:31;;;;;;;12.07;7.90;;;;;;;19.25;100.00;100462.80;1663587;84;21069;-96
2022/08/01 06:41:00;;;;;;;9.60;8.20;;;;;;;19.23;100.00;100464.27;1660129;85;21123;-95
2022/08/01 06:43:27;;;;;;;11.73;8.88;;;;;;;19.22;100.00;100464.78;1658156;85;21799;-95
2022/08/01 06:45:54;;;;;;;13.05;8.98;;;;;;;19.20;100.00;100454.89;1667134;84;21057;-94
2022/08/01 06:48:21;;;;;;;11.95;8.75;;;;;;;19.18;100.00;100465.31;1660420;85;21050;-95
2022/08/01 06:50:48;;;;;;;13.30;8.85;;;;;;;19.13;100.00;100467.66;1647402;84;21059;-94
2022/08/01 06:53:15;;;;;;;11.65;8.43;;;;;;;19.10;100.00;100477.23;1688458;84;21059;-94
2022/08/01 06:55:42;;;;;;;10.40;8.23;;;;;;;19.07;100.00;100469.18;1702127;84;21190;-96
2022/08/01 06:58:09;;;;;;;9.43;8.50;;;;;;;19.07;100.00;100475.77;1703055;84;21593;-95
2022/08/01 07:00:36;;;;;;;10.35;7.97;;;;;;;19.07;100.00;100481.86;1698304;84;21005;-94
2022/08/01 07:03:03;;;;;;;12.60;8.00;;;;;;;19.10;100.00;100479.88;1696078;84;21116;-95
2022/08/01 07:05:31;;;;;;;13.70;8.63;;;;;;;19.12;100.00;100473.94;1696387;84;21538;-96
2022/08/01 07:07:58;;;;;;;10.63;8.45;;;;;;;19.15;100.00;100479.68;1696010;84;21566;-95
2022/08/01 07:10:25;;;;;;;9.85;7.87;;;;;;;19.17;100.00;100482.97;1661472;85;21045;-96
2022/08/01 07:12:53;;;;;;;10.68;8.35;;;;;;;19.19;100.00;100471.72;1669396;85;21031;-95
2022/08/01 07:15:26;;;;;;;10.60;8.05;;;;;;;19.23;100.00;100458.99;1636241;87;21082;-94
2022/08/01 07:17:51;;;;;;;10.65;8.53;;;;;;;19.29;100.00;100457.47;1634443;87;21081;-94
2022/08/01 07:20:18;;;;;;;11.18;9.10;;;;;;;19.32;100.00;100457.94;1652528;85;21185;-95
2022/08/01 07:22:45;;;;;;;10.38;8.13;;;;;;;19.36;100.00;100475.56;1629744;85;21032;-95
2022/08/01 07:25:13;;;;;;;9.80;8.30;;;;;;;19.40;100.00;100483.47;1647715;86;21547;-95
2022/08/01 07:27:40;;;;;;;10.95;8.10;;;;;;;19.45;100.00;100501.42;1663192;85;21082;-93
2022/08/01 07:30:07;;;;;;;10.78;8.13;;;;;;;19.51;100.00;100513.91;1660352;85;21672;-92
2022/08/01 07:32:35;;;;;;;14.43;8.88;;;;;;;19.62;100.00;100529.84;1699758;84;21849;-95
2022/08/01 07:35:03;;;;;;;14.45;8.35;;;;;;;19.76;100.00;100529.05;1690046;84;21041;-93
2022/08/01 07:37:31;;;;;;;11.50;8.65;;;;;;;19.91;100.00;100517.76;1648618;86;21168;-92
2022/08/01 07:39:58;;;;;;;10.88;9.18;;;;;;;20.09;100.00;100508.16;1648525;86;21582;-94
2022/08/01 07:42:26;;;;;;;11.83;9.50;;;;;;;20.25;100.00;100497.91;1647436;86;21070;-91
2022/08/01 07:44:54;;;;;;;11.12;9.33;;;;;;;20.41;100.00;100498.23;1647487;86;21150;-91
2022/08/01 07:47:25;;;;;;;9.95;8.90;;;;;;;20.57;100.00;100500.69;1642208;84;21125;-92
2022/08/01 07:50:01;;;;;;;10.72;9.63;;;;;;;20.72;100.00;100491.91;1648755;85;21116;-92
2022/08/01 07:52:35;;;;;;;11.43;9.63;;;;;;;20.96;100.00;100486.80;1695047;83;21025;-91
2022/08/01 07:55:03;;;;;;;10.15;9.03;;;;;;;21.23;100.00;100485.25;1687991;83;21346;-92
2022/08/01 07:57:31;;;;;;;14.98;9.88;;;;;;;21.44;100.00;100476.48;1663756;86;21184;-92
2022/08/01 07:59:58;;;;;;;13.40;10.15;;;;;;;21.56;100.00;100462.73;1657996;86;21072;-93
2022/08/01 08:02:26;;;;;;;12.00;10.10;;;;;;;21.64;100.00;100464.44;1703692;83;21054;-95
2022/08/01 08:04:53;;;;;;;11.28;10.00;;;;;;;21.64;100.00;100463.11;1677628;84;21465;-93
2022/08/01 08:07:22;;;;;;;11.80;9.55;;;;;;;21.62;100.00;100458.53;1645939;86;21092;-93
2022/08/01 08:09:50;;;;;;;11.53;10.15;;;;;;;21.61;100.00;100457.70;1669125;85;21251;-93
2022/08/01 08:12:19;;;;;;;13.58;10.63;;;;;;;21.63;100.00;100476.88;1660758;86;21028;-94
2022/08/01 08:14:46;;;;;;;13.93;10.03;;;;;;;21.66;100.00;100488.43;1660954;86;20984;-94
2022/08/01 08:17:13;;;;;;;15.53;9.60;;;;;;;21.72;100.00;100495.61;1661149;86;21084;-93
2022/08/01 08:19:41;;;;;;;13.50;9.73;;;;;;;21.81;100.00;100495.47;1660935;86;21016;-93
2022/08/01 08:22:09;;;;;;;12.18;9.35;;;;;;;21.92;100.00;100490.94;1661341;86;21101;-93
2022/08/01 08:24:37;;;;;;;11.18;9.33;;;;;;;22.06;100.00;100488.71;1661046;86;20964;-96
2022/08/01 08:27:05;;;;;;;11.00;9.60;;;;;;;22.20;100.00;100473.67;1661287;86;21588;-92
2022/08/01 08:29:33;;;;;;;10.90;9.88;;;;;;;22.40;100.00;100466.86;1661277;86;21112;-95
2022/08/01 08:32:02;;;;;;;13.30;10.03;;;;;;;22.57;100.00;100453.57;1661441;84;21123;-91
2022/08/01 08:34:29;;;;;;;11.80;10.18;;;;;;;22.71;100.00;100448.33;1660892;86;21113;-92
2022/08/01 08:36:58;;;;;;;12.73;9.60;;;;;;;22.71;100.00;100421.27;1660853;86;21062;-93
2022/08/01 08:39:26;;;;;;;12.93;9.45;;;;;;;22.68;100.00;100417.68;1661327;86;21040;-93
2022/08/01 08:41:59;;;;;;;10.60;8.68;;;;;;;22.62;100.00;100414.02;1660793;86;21028;-92
2022/08/01 08:44:26;;;;;;;13.18;9.65;;;;;;;22.63;100.00;100406.86;1622205;87;22183;-91
2022/08/01 08:46:55;;;;;;;11.70;9.55;;;;;;;22.62;100.00;100391.95;1653363;86;21146;-93
2022/08/01 08:49:26;;;;;;;10.10;9.03;;;;;;;22.66;100.00;100396.66;1669562;86;21053;-91
2022/08/01 08:51:58;;;;;;;10.25;9.15;;;;;;;22.79;100.00;100395.07;1661362;84;21062;-93
2022/08/01 08:54:28;;;;;;;13.20;9.58;;;;;;;22.90;100.00;100387.81;1660875;84;21627;-90
2022/08/01 08:56:56;;;;;;;11.08;9.55;;;;;;;22.97;100.00;100395.80;1660774;86;21066;-92
2022/08/01 08:59:25;;;;;;;12.13;10.25;;;;;;;22.99;100.00;100379.97;1660563;86;21152;-90
2022/08/01 09:01:55;;;;;;;11.08;9.95;;;;;;;23.04;100.00;100386.49;1669834;84;21011;-90
2022/08/01 09:04:25;;;;;;;14.33;10.65;;;;;;;23.06;100.00;100391.09;1670184;85;21047;-90
2022/08/01 09:06:56;;;;;;;11.88;10.65;;;;;;;23.06;100.00;100375.17;1670677;85;21015;-91
2022/08/01 09:09:24;;;;;;;12.03;10.85;;;;;;;23.14;100.00;100377.62;1670575;85;21011;-91
2022/08/01 09:11:55;;;;;;;11.08;9.93;;;;;;;23.17;100.00;100371.91;1670502;85;21132;-90
2022/08/01 09:14:29;;;;;;;12.37;10.20;;;;;;;23.22;100.00;100377.97;1670506;85;21118;-92
2022/08/01 09:17:08;;;;;;;11.33;10.13;;;;;;;23.22;100.00;100362.84;1667613;85;21066;-93
2022/08/01 09:19:47;;;;;;;11.35;9.60;;;;;;;23.12;100.00;100357.09;1670536;85;21017;-92
2022/08/01 09:22:21;;;;;;;13.45;10.45;;;;;;;23.05;100.00;100353.13;1670561;85;21497;-93
2022/08/01 09:25:09;;;;;;;10.75;9.58;;;;;;;23.05;100.00;100333.21;1671160;84;21268;-91
2022/08/01 09:27:38;;;;;;;10.72;8.90;;;;;;;23.10;100.00;100325.95;1672557;84;21541;-90
2022/08/01 09:30:18;;;;;;;13.15;9.80;;;;;;;23.16;100.00;100332.58;1670987;84;21458;-91
2022/08/01 09:33:03;;;;;;;10.72;9.68;;;;;;;23.16;100.00;100331.24;1666920;85;21039;-90
2022/08/01 09:35:41;;;;;;;13.80;10.40;;;;;;;23.19;100.00;100336.71;1669767;85;21544;-91
2022/08/01 09:38:21;;;;;;;10.35;9.33;;;;;;;23.15;100.00;100325.63;1671008;84;21121;-88
2022/08/01 09:40:59;;;;;;;10.45;9.30;;;;;;;23.15;100.00;100319.51;1670050;85;21101;-90
2022/08/01 09:43:29;;;;;;;13.85;9.40;;;;;;;23.18;100.00;100326.27;1671008;84;21018;-88
2022/08/01 09:45:58;;;;;;;10.78;9.68;;;;;;;23.22;100.00;100326.98;1666457;84;21074;-90
2022/08/01 09:48:27;;;;;;;13.98;9.80;;;;;;;23.23;100.00;100325.97;1672038;84;21584;-89
2022/08/01 09:50:55;;;;;;;11.60;9.68;;;;;;;23.18;100.00;100327.11;1671782;84;21149;-90
2022/08/01 09:53:23;;;;;;;10.90;9.83;;;;;;;23.13;100.00;100327.69;1671736;84;21070;-90
2022/08/01 09:55:52;;;;;;;10.08;9.08;;;;;;;23.08;100.00;100331.98;1671194;84;21584;-89
2022/08/01 09:58:20;;;;;;;12.07;10.00;;;;;;;23.02;100.00;100316.88;1672150;84;21108;-90
2022/08/01 10:01:00;;;;;;;12.50;10.35;;;;;;;23.02;100.00;100327.49;1663771;84;21034;-89
2022/08/01 10:03:29;;;;;;;11.15;9.73;;;;;;;22.94;100.00;100326.68;1656927;86;21161;-89
2022/08/01 10:05:58;;;;;;;11.40;10.45;;;;;;;22.87;100.00;100335.65;1660219;85;21613;-90
2022/08/01 10:08:27;;;;;;;12.37;11.22;;;;;;;22.78;100.00;100326.55;1660618;85;21070;-90
2022/08/01 10:11:12;;;;;;;12.75;10.70;;;;;;;22.69;100.00;100334.41;1660814;86;21556;-90
2022/08/01 10:13:41;;;;;;;13.22;11.68;;;;;;;22.62;100.00;100346.35;1660104;85;21006;-89
2022/08/01 10:16:09;;;;;;;14.05;11.50;;;;;;;22.59;100.00;100357.88;1660442;85;21156;-89
2022/08/01 10:18:38;;;;;;;12.82;10.70;;;;;;;22.56;100.00;100357.75;1660253;86;21133;-90
2022/08/01 10:21:06;;;;;;;12.53;10.55;;;;;;;22.54;100.00;100354.50;1661012;86;21532;-89
2022/08/01 10:57:48;;;;;;;12.47;11.15;;;;;;;22.51;100.00;100386.20;1611887;85;21361;-90
2022/08/01 11:00:21;;;;;;;14.50;11.35;;;;;;;22.47;100.00;100390.28;1675922;84;21557;-91
2022/08/01 11:03:03;;;;;;;13.75;11.25;;;;;;;22.42;100.00;100394.55;1672087;85;21115;-89
2022/08/01 11:05:35;;;;;;;14.70;10.95;;;;;;;22.33;100.00;100406.63;1672005;85;21169;-90
2022/08/01 11:08:07;;;;;;;12.20;11.00;;;;;;;22.21;100.00;100404.24;1671539;85;21068;-89
2022/08/01 11:10:42;;;;;;;14.05;11.50;;;;;;;22.07;100.00;100406.01;1663093;85;21096;-88
2022/08/01 11:13:11;;;;;;;13.85;10.70;;;;;;;21.96;100.00;100417.98;1671496;85;21075;-89
2022/08/01 11:15:41;;;;;;;12.18;11.08;;;;;;;21.87;100.00;100419.95;1672162;85;21068;-94
2022/08/01 11:18:30;;;;;;;12.98;10.53;;;;;;;21.81;100.00;100437.16;1672263;85;21135;-89
2022/08/01 11:21:03;;;;;;;12.55;10.82;;;;;;;21.71;100.00;100442.30;1663682;85;20973;-90
2022/08/01 11:23:32;;;;;;;12.18;10.78;;;;;;;21.64;100.00;100450.70;1671784;85;21099;-90
2022/08/01 11:26:08;;;;;;;12.23;11.12;;;;;;;21.59;100.00;100465.05;1651192;85;21158;-89
2022/08/01 11:28:37;;;;;;;14.03;11.70;;;;;;;21.52;100.00;100463.63;1672443;85;21025;-91
2022/08/01 11:31:16;;;;;;;16.12;11.83;;;;;;;21.47;100.00;100462.06;1672120;85;22107;-90
2022/08/01 11:33:48;;;;;;;13.05;11.65;;;;;;;21.43;100.00;100470.86;1667030;85;21060;-91
2022/08/01 11:36:20;;;;;;;12.50;11.20;;;;;;;21.41;100.00;100478.69;1627766;87;21030;-91
2022/08/01 11:39:10;;;;;;;13.78;10.80;;;;;;;21.41;100.00;100468.94;1657314;86;21034;-91
2022/08/01 11:41:38;;;;;;;11.43;10.38;;;;;;;21.40;100.00;100476.56;1669575;86;21041;-90
2022/08/01 11:44:19;;;;;;;12.82;11.50;;;;;;;21.38;100.00;100475.92;1669595;85;21170;-90
2022/08/01 11:46:59;;;;;;;11.83;10.55;;;;;;;21.39;100.00;100474.92;1669012;86;21026;-92
2022/08/01 11:49:44;;;;;;;12.50;10.63;;;;;;;21.43;100.00;100480.14;1669553;86;21025;-90
2022/08/01 11:52:29;;;;;;;13.53;11.73;;;;;;;21.47;100.00;100482.41;1669740;86;21074;-91
2022/08/01 11:55:05;;;;;;;12.28;11.08;;;;;;;21.49;100.00;100494.45;1669579;84;21038;-91
2022/08/01 11:57:35;;;;;;;17.00;12.43;;;;;;;21.47;100.00;100493.01;1669950;85;21365;-92
2022/08/01 12:00:17;;;;;;;12.78;10.93;;;;;;;21.43;100.00;100497.87;1669549;84;21551;-90
2022/08/01 12:02:46;;;;;;;12.90;10.95;;;;;;;21.40;100.00;100508.83;1667108;85;21050;-91
2022/08/01 12:05:20;;;;;;;14.28;11.48;;;;;;;21.38;100.00;100509.03;1665059;84;21053;-91
2022/08/01 12:07:51;;;;;;;13.08;10.58;;;;;;;21.38;100.00;100507.70;1636360;86;20984;-91
2022/08/01 12:10:20;;;;;;;12.25;10.95;;;;;;;21.35;100.00;100504.09;1630338;88;21158;-94
2022/08/01 12:13:01;;;;;;;12.80;10.70;;;;;;;21.30;100.00;100513.12;1668746;83;21065;-94
2022/08/01 12:15:35;;;;;;;12.60;11.30;;;;;;;21.29;100.00;100524.72;1690781;84;21551;-95
2022/08/01 12:18:05;;;;;;;15.60;11.22;;;;;;;21.27;100.00;100527.56;1672879;83;21651;-94
2022/08/01 12:20:35;;;;;;;14.17;11.53;;;;;;;21.26;100.00;100538.36;1659188;84;21109;-96
2022/08/01 12:23:12;;;;;;;12.63;11.30;;;;;;;21.26;100.00;100534.38;1655092;84;21173;-93
2022/08/01 12:25:40;;;;;;;14.30;11.85;;;;;;;21.25;100.00;100537.52;1656668;86;21018;-94
2022/08/01 12:28:10;;;;;;;12.28;11.12;;;;;;;21.24;100.00;100531.09;1652574;86;21045;-95
2022/08/01 12:30:38;;;;;;;13.10;11.75;;;;;;;21.23;100.00;100526.80;1656452;86;21014;-94
2022/08/01 12:33:09;;;;;;;13.90;12.50;;;;;;;21.24;100.00;100517.34;1656302;86;21592;-93
2022/08/01 12:35:38;;;;;;;;;;;;;;;21.22;100.00;100513.25;1654500;85;21121;-93
2022/08/01 12:38:26;;;;;;;11.90;10.70;;;;;;;21.16;100.00;100517.98;1653248;86;20146;-94
2022/08/01 12:40:49;;;;;;;13.68;12.30;;;;;;;21.12;100.00;100530.25;1699197;84;21023;-94
2022/08/01 12:43:20;;;;;;;13.93;12.47;;;;;;;21.10;100.00;100512.92;1700967;84;21012;-95
2022/08/01 12:45:50;;;;;;;14.18;12.70;;;;;;;21.04;100.00;100501.25;1700780;84;21025;-95
2022/08/01 12:48:19;;;;;;;17.05;13.05;;;;;;;20.93;100.00;100499.11;1701252;83;21251;-96
2022/08/01 12:50:49;;;;;;;16.52;11.53;;;;;;;20.83;100.00;100502.55;1700793;84;21604;-95
2022/08/01 12:53:18;;;;;;;12.43;11.22;;;;;;;20.74;100.00;100517.72;1689647;83;21623;-93
2022/08/01 12:55:53;;;;;;;17.40;12.10;;;;;;;20.72;100.00;100540.85;1683043;85;21631;-94
2022/08/01 12:58:21;;;;;;;15.38;12.20;;;;;;;20.73;100.00;100549.14;1680345;84;21378;-95
2022/08/01 13:00:53;;;;;;;15.03;11.80;;;;;;;20.76;100.00;100552.72;1677627;85;21141;-94
2022/08/01 13:03:21;;;;;;;14.38;11.95;;;;;;;20.81;100.00;100547.72;1679320;84;21017;-96
2022/08/01 13:05:56;;;;;;;19.20;12.43;;;;;;;20.82;100.00;100543.23;1681901;84;21543;-96
2022/08/01 13:08:32;;;;;;;12.55;11.25;;;;;;;20.81;100.00;100547.72;1680913;83;21086;-95
2022/08/01 13:11:08;;;;;;;13.90;11.20;;;;;;;20.81;100.00;100550.37;1681273;84;21520;-93
2022/08/01 13:13:51;;;;;;;16.82;11.55;;;;;;;20.83;100.00;100545.69;1679877;84;21147;-94
2022/08/01 13:16:24;;;;;;;12.43;11.15;;;;;;;20.83;100.00;100532.45;1676987;85;21057;-95
2022/08/01 13:18:56;;;;;;;15.03;11.50;;;;;;;20.77;100.00;100528.75;1672504;83;21113;-95
2022/08/01 13:21:27;;;;;;;16.02;11.70;;;;;;;20.69;100.00;100523.53;1675365;85;21053;-94
2022/08/01 13:24:13;;;;;;;13.13;11.83;;;;;;;20.60;100.00;100518.82;1691190;83;21929;-93
2022/08/01 13:26:49;;;;;;;12.05;10.80;;;;;;;20.55;100.00;100519.08;1685023;85;21943;-94
2022/08/01 13:29:22;;;;;;;14.20;11.03;;;;;;;20.51;100.00;100515.14;1667551;84;21009;-93
2022/08/01 13:31:51;;;;;;;13.08;11.70;;;;;;;20.52;100.00;100509.66;1665586;85;21093;-94
2022/08/01 13:34:18;;;;;;;12.70;10.43;;;;;;;20.50;100.00;100513.02;1635093;86;21143;-94
2022/08/01 13:36:46;;;;;;;12.73;11.43;;;;;;;20.43;100.00;100518.20;1665915;85;21051;-94
2022/08/01 13:42:01;;;;;;;13.08;11.78;;;;;;;20.33;100.00;100522.94;1670014;83;21041;-95
2022/08/01 13:44:29;;;;;;;11.70;10.43;;;;;;;20.29;100.00;100529.09;1670974;85;21054;-96
2022/08/01 13:46:56;;;;;;;13.30;11.73;;;;;;;20.27;100.00;100560.16;1626316;86;21076;-94
2022/08/01 14:01:56;;;;;;;13.00;11.70;;;;;;;20.83;100.00;100600.45;1830343;77;22356;-94
2022/08/01 14:04:23;;;;;;;14.10;12.60;;;;;;;20.87;100.00;100621.07;1789851;78;21001;-94
2022/08/01 14:06:50;;;;;;;13.20;11.73;;;;;;;20.87;100.00;100636.95;1803538;78;21264;-93
2022/08/01 14:09:19;;;;;;;11.83;10.53;;;;;;;20.80;100.00;100636.84;1803609;78;21073;-93